SBBRYZYX KWBCYMYX SOZZMAMX SYZZMAMX TBPBYMYX TNCCYMYX

TNCAYMYX TFFFYMYX TFFRYMYX TTPPYMYX EGZZMNAM

200400 SMJPYMYX

FTSM20 SMJP 200400

TAF SMJP 200400Z 2006/2106 04003KT CAVOK TX32/2018Z TN23/2009Z TEMPO 2008/2011 1000 BR BKN002 BECMG 2011/2013 08014KT SCT020 TEMPO 2017/2020 VRB10G20KT 5000 SHRA FEW018CB SCT025 BECMG 2013/2101 VRB03KT=

 

TAF SMZO 2006/2106 04003KT CAVOK TX32/2018Z TN25/2009Z BECMG 2011/2013 07012KT SCT018 TEMPO 2016/2020 5000 SHRA FEW018CB SCT020 BECMG 2013/2101 03003KT=

 

 

TW

DECEMBER , 2014